Time;durP1;ratioP1;P1;durP2;ratioP2;P2;SDS_P1;SDS_P2;PMS_P1;PMS_P2;Temp;Humidity;BMP_temperature;BMP_pressure;BME280_temperature;BME280_humidity;BME280_pressure;Samples;Min_cycle;Max_cycle;Signal;HPM_P1;HPM_P2
2022/01/11 00:01:21;;;;;;;76.25;32.33;;;;;;;;;;5033621;28;20029;-74
2022/01/11 00:03:47;;;;;;;65.65;32.05;;;;;;;;;;5034357;28;20087;-75
2022/01/11 00:06:29;;;;;;;76.68;34.83;;;;;;;;;;5034655;28;20029;-75
2022/01/11 00:09:00;;;;;;;78.05;34.40;;;;;;;;;;5034306;28;20103;-74
2022/01/11 00:11:26;;;;;;;78.15;33.92;;;;;;;;;;5034511;28;20022;-74
2022/01/11 00:13:52;;;;;;;89.13;37.80;;;;;;;;;;5016307;28;20034;-74
2022/01/11 00:16:18;;;;;;;86.85;36.45;;;;;;;;;;5034130;28;20026;-74
2022/01/11 00:18:44;;;;;;;86.57;36.17;;;;;;;;;;5016525;28;20021;-74
2022/01/11 00:21:11;;;;;;;83.15;37.63;;;;;;;;;;5034285;28;20028;-75
2022/01/11 00:26:03;;;;;;;83.03;36.20;;;;;;;;;;5034112;28;20132;-73
2022/01/11 00:28:30;;;;;;;89.68;38.92;;;;;;;;;;5034055;28;20056;-72
2022/01/11 00:30:56;;;;;;;89.22;37.60;;;;;;;;;;5033852;28;20025;-74
2022/01/11 00:33:31;;;;;;;83.75;37.67;;;;;;;;;;5033729;28;20427;-76
2022/01/11 00:35:59;;;;;;;88.97;38.53;;;;;;;;;;5016207;28;20487;-74
2022/01/11 00:38:26;;;;;;;93.03;39.15;;;;;;;;;;5034013;28;20030;-73
2022/01/11 00:40:54;;;;;;;86.28;38.33;;;;;;;;;;5035296;28;20029;-73
2022/01/11 00:43:22;;;;;;;87.88;37.92;;;;;;;;;;5033644;28;20025;-74
2022/01/11 00:45:48;;;;;;;77.38;35.22;;;;;;;;;;5016514;28;20409;-74
2022/01/11 00:48:14;;;;;;;88.53;37.15;;;;;;;;;;5033442;28;20034;-72
2022/01/11 00:50:40;;;;;;;83.88;37.38;;;;;;;;;;5015750;28;20389;-75
2022/01/11 00:53:07;;;;;;;91.32;39.05;;;;;;;;;;5015800;28;20033;-74
2022/01/11 00:55:34;;;;;;;88.30;39.15;;;;;;;;;;5033850;28;20083;-76
2022/01/11 00:58:02;;;;;;;91.35;41.40;;;;;;;;;;5015858;28;20022;-72
2022/01/11 01:00:28;;;;;;;92.07;38.72;;;;;;;;;;5033560;28;20104;-73
2022/01/11 01:02:54;;;;;;;90.25;39.08;;;;;;;;;;5033308;28;20079;-73
2022/01/11 01:05:21;;;;;;;84.90;38.47;;;;;;;;;;5033533;28;20033;-74
2022/01/11 01:07:47;;;;;;;88.03;39.20;;;;;;;;;;5033722;28;20029;-74
2022/01/11 01:10:58;;;;;;;88.03;38.22;;;;;;;;;;5033357;28;20105;-74
2022/01/11 01:12:59;;;;;;;87.70;39.13;;;;;;;;;;5025519;28;20068;-75
2022/01/11 01:15:26;;;;;;;85.72;38.80;;;;;;;;;;5033150;28;20022;-74
2022/01/11 01:17:52;;;;;;;89.50;39.03;;;;;;;;;;5033251;28;20036;-74
2022/01/11 01:20:19;;;;;;;85.95;37.42;;;;;;;;;;5033268;28;20018;-74
2022/01/11 01:22:46;;;;;;;91.07;39.38;;;;;;;;;;5033220;28;20021;-72
2022/01/11 01:25:13;;;;;;;85.25;38.22;;;;;;;;;;5015414;28;20487;-74
2022/01/11 01:27:39;;;;;;;83.28;38.22;;;;;;;;;;5015132;28;20029;-74
2022/01/11 01:30:06;;;;;;;82.15;36.95;;;;;;;;;;5032808;28;20104;-75
2022/01/11 01:32:32;;;;;;;79.10;36.97;;;;;;;;;;5032971;28;20029;-74
2022/01/11 01:35:02;;;;;;;86.15;36.38;;;;;;;;;;5032765;28;20541;-74
2022/01/11 01:37:29;;;;;;;87.18;36.60;;;;;;;;;;5032688;28;20018;-76
2022/01/11 01:39:55;;;;;;;81.15;36.75;;;;;;;;;;5032697;28;20029;-73
2022/01/11 01:42:28;;;;;;;86.93;37.67;;;;;;;;;;5032647;28;20024;-74
2022/01/11 01:44:54;;;;;;;81.95;36.08;;;;;;;;;;5015035;28;20045;-74
2022/01/11 01:47:20;;;;;;;83.22;36.55;;;;;;;;;;5032631;28;20021;-74
2022/01/11 01:49:46;;;;;;;90.10;39.13;;;;;;;;;;5032908;28;20096;-74
2022/01/11 01:52:14;;;;;;;84.90;38.90;;;;;;;;;;5032623;28;20112;-74
2022/01/11 01:54:40;;;;;;;82.80;40.47;;;;;;;;;;5015890;28;20021;-74
2022/01/11 01:57:06;;;;;;;80.10;36.15;;;;;;;;;;5032345;28;20037;-74
2022/01/11 01:59:32;;;;;;;73.40;35.97;;;;;;;;;;5015083;28;20399;-75
2022/01/11 02:01:58;;;;;;;73.90;33.25;;;;;;;;;;5015306;28;20021;-74
2022/01/11 02:04:24;;;;;;;68.47;32.10;;;;;;;;;;5032678;28;20022;-74
2022/01/11 02:06:51;;;;;;;76.35;32.97;;;;;;;;;;5032957;28;20032;-74
2022/01/11 02:09:17;;;;;;;75.15;33.33;;;;;;;;;;5039734;28;20109;-75
2022/01/11 02:11:43;;;;;;;77.57;33.97;;;;;;;;;;5038455;28;20033;-74
2022/01/11 02:14:10;;;;;;;75.25;34.55;;;;;;;;;;5020959;28;20029;-74
2022/01/11 02:16:36;;;;;;;75.68;35.22;;;;;;;;;;5036340;28;20064;-74
2022/01/11 02:19:02;;;;;;;78.15;34.50;;;;;;;;;;5037411;28;20040;-74
2022/01/11 02:21:28;;;;;;;78.05;34.20;;;;;;;;;;5036144;28;20021;-74
2022/01/11 02:23:55;;;;;;;77.55;34.05;;;;;;;;;;5034268;28;20082;-73
2022/01/11 02:26:21;;;;;;;79.18;35.85;;;;;;;;;;5038855;28;20037;-74
2022/01/11 02:28:48;;;;;;;79.38;35.92;;;;;;;;;;5037591;28;20020;-74
2022/01/11 02:31:14;;;;;;;80.43;35.67;;;;;;;;;;5035662;28;20092;-74
2022/01/11 02:33:44;;;;;;;83.53;38.50;;;;;;;;;;5037996;28;20053;-74
2022/01/11 02:36:11;;;;;;;88.95;37.75;;;;;;;;;;5040042;28;20053;-74
2022/01/11 02:38:37;;;;;;;84.28;37.20;;;;;;;;;;5032531;28;20071;-73
2022/01/11 02:41:04;;;;;;;88.05;37.38;;;;;;;;;;5038638;28;20419;-76
2022/01/11 02:43:30;;;;;;;85.90;38.35;;;;;;;;;;5040445;28;20057;-74
2022/01/11 02:45:58;;;;;;;80.28;36.65;;;;;;;;;;5031598;28;20033;-74
2022/01/11 02:48:24;;;;;;;86.05;34.65;;;;;;;;;;5031705;28;20022;-74
2022/01/11 02:50:50;;;;;;;80.30;37.42;;;;;;;;;;5013909;28;20037;-74
2022/01/11 02:53:18;;;;;;;82.80;37.10;;;;;;;;;;5031621;28;20159;-73
2022/01/11 02:55:44;;;;;;;88.88;37.30;;;;;;;;;;5031753;28;20032;-73
2022/01/11 02:58:10;;;;;;;95.47;38.90;;;;;;;;;;5031595;28;20021;-74
2022/01/11 03:00:38;;;;;;;89.30;40.90;;;;;;;;;;5031820;28;20033;-74
2022/01/11 03:03:09;;;;;;;92.55;39.90;;;;;;;;;;5031427;28;20026;-74
2022/01/11 03:05:35;;;;;;;93.70;40.97;;;;;;;;;;5013845;28;20116;-73
2022/01/11 03:08:01;;;;;;;90.97;40.97;;;;;;;;;;5031532;28;20467;-74
2022/01/11 03:10:33;;;;;;;93.75;41.35;;;;;;;;;;5031774;28;20037;-73
2022/01/11 03:13:00;;;;;;;98.80;42.85;;;;;;;;;;5031206;28;20446;-74
2022/01/11 03:15:26;;;;;;;95.70;40.90;;;;;;;;;;5031568;28;20554;-74
2022/01/11 03:17:52;;;;;;;94.97;40.55;;;;;;;;;;5031478;28;20031;-74
2022/01/11 03:20:18;;;;;;;106.90;43.92;;;;;;;;;;5031955;28;20028;-74
2022/01/11 03:22:44;;;;;;;96.47;42.40;;;;;;;;;;5031333;28;20029;-74
2022/01/11 03:25:12;;;;;;;99.50;42.88;;;;;;;;;;5031240;28;20041;-74
2022/01/11 03:27:38;;;;;;;99.85;44.30;;;;;;;;;;5013736;28;20479;-73
2022/01/11 03:30:05;;;;;;;95.35;40.83;;;;;;;;;;5013823;28;20483;-74
2022/01/11 03:32:31;;;;;;;91.95;40.90;;;;;;;;;;5031191;28;20095;-75
2022/01/11 03:34:57;;;;;;;92.07;41.97;;;;;;;;;;5033176;28;20028;-76
2022/01/11 03:37:23;;;;;;;95.25;42.20;;;;;;;;;;5035172;28;20025;-76
2022/01/11 03:39:49;;;;;;;95.75;41.78;;;;;;;;;;5036191;28;20104;-73
2022/01/11 03:42:15;;;;;;;104.50;43.63;;;;;;;;;;5017454;28;20652;-74
2022/01/11 03:44:41;;;;;;;101.20;44.08;;;;;;;;;;5035596;28;20112;-74
2022/01/11 03:47:07;;;;;;;103.95;44.45;;;;;;;;;;5035411;28;20052;-74
2022/01/11 03:49:34;;;;;;;101.68;44.50;;;;;;;;;;5035721;28;20030;-73
2022/01/11 03:51:59;;;;;;;101.50;44.63;;;;;;;;;;5034863;28;20471;-73
2022/01/11 03:54:29;;;;;;;98.50;42.10;;;;;;;;;;5034993;28;20475;-73
2022/01/11 03:56:56;;;;;;;100.75;45.67;;;;;;;;;;5035897;28;20026;-74
2022/01/11 03:59:22;;;;;;;104.45;46.05;;;;;;;;;;5035761;28;20040;-73
2022/01/11 04:01:48;;;;;;;107.18;44.83;;;;;;;;;;5017618;28;20029;-72
2022/01/11 04:04:15;;;;;;;109.68;47.05;;;;;;;;;;5034353;28;20033;-72
2022/01/11 04:06:41;;;;;;;110.70;48.13;;;;;;;;;;5035116;28;20025;-74
2022/01/11 04:09:08;;;;;;;115.75;50.67;;;;;;;;;;5035188;28;20036;-73
2022/01/11 04:11:34;;;;;;;112.03;47.55;;;;;;;;;;5034494;28;20032;-74
2022/01/11 04:14:00;;;;;;;123.25;51.40;;;;;;;;;;5034529;28;20448;-73
2022/01/11 04:16:27;;;;;;;110.10;46.53;;;;;;;;;;5035622;28;20051;-75
2022/01/11 04:18:53;;;;;;;106.15;47.88;;;;;;;;;;5034779;28;20017;-74
2022/01/11 04:21:18;;;;;;;113.70;46.88;;;;;;;;;;5034262;28;20052;-74
2022/01/11 04:23:45;;;;;;;106.43;45.25;;;;;;;;;;5034012;28;20030;-74
2022/01/11 04:26:11;;;;;;;117.35;50.05;;;;;;;;;;5034055;28;20052;-74
2022/01/11 04:28:37;;;;;;;114.68;48.72;;;;;;;;;;5034496;28;20091;-75
2022/01/11 04:31:03;;;;;;;105.53;47.75;;;;;;;;;;5034365;28;20479;-73
2022/01/11 04:33:30;;;;;;;111.85;47.72;;;;;;;;;;5016360;28;20021;-74
2022/01/11 04:35:57;;;;;;;120.35;52.08;;;;;;;;;;5034217;28;20083;-76
2022/01/11 04:38:24;;;;;;;111.32;46.97;;;;;;;;;;5017684;28;20018;-74
2022/01/11 04:40:50;;;;;;;124.20;51.00;;;;;;;;;;5034018;28;20395;-74
2022/01/11 04:43:16;;;;;;;122.22;48.85;;;;;;;;;;5034209;28;20033;-74
2022/01/11 04:45:42;;;;;;;116.80;48.55;;;;;;;;;;5015054;28;20026;-76
2022/01/11 04:48:08;;;;;;;114.03;48.13;;;;;;;;;;5034349;28;20029;-75
2022/01/11 04:50:34;;;;;;;107.95;46.17;;;;;;;;;;5032158;28;20498;-75
2022/01/11 04:53:01;;;;;;;111.85;48.60;;;;;;;;;;5014265;28;20029;-76
2022/01/11 04:55:27;;;;;;;108.40;46.42;;;;;;;;;;5032391;28;20112;-76
2022/01/11 04:57:53;;;;;;;117.90;49.05;;;;;;;;;;5032505;28;20035;-74
2022/01/11 05:00:20;;;;;;;113.60;48.78;;;;;;;;;;5014974;28;20031;-75
2022/01/11 05:02:47;;;;;;;112.10;47.15;;;;;;;;;;5014979;28;20030;-76
2022/01/11 05:05:13;;;;;;;106.65;43.35;;;;;;;;;;5033428;28;20033;-74
2022/01/11 05:07:39;;;;;;;109.35;43.85;;;;;;;;;;5034134;28;20029;-73
2022/01/11 05:10:05;;;;;;;116.18;45.83;;;;;;;;;;5033531;28;20550;-74
2022/01/11 05:12:32;;;;;;;111.60;43.63;;;;;;;;;;5033661;28;20096;-74
2022/01/11 05:14:57;;;;;;;117.97;46.65;;;;;;;;;;5033521;28;20033;-74
2022/01/11 05:17:23;;;;;;;113.97;45.22;;;;;;;;;;5033508;28;20029;-75
2022/01/11 05:19:49;;;;;;;115.22;44.58;;;;;;;;;;5033767;28;20022;-76
2022/01/11 05:22:15;;;;;;;109.78;44.72;;;;;;;;;;5033238;28;20026;-73
2022/01/11 05:24:41;;;;;;;112.00;43.15;;;;;;;;;;5054998;22;20031;-76
2022/01/11 05:27:07;;;;;;;122.63;47.53;;;;;;;;;;5013339;28;20026;-76
2022/01/11 05:29:34;;;;;;;115.07;46.03;;;;;;;;;;5014033;28;20032;-76
2022/01/11 05:32:00;;;;;;;114.43;44.15;;;;;;;;;;5030802;28;20017;-75
2022/01/11 05:34:26;;;;;;;106.03;42.63;;;;;;;;;;5018708;28;20089;-75
2022/01/11 05:36:53;;;;;;;107.90;43.17;;;;;;;;;;5028018;28;20030;-77
2022/01/11 05:39:19;;;;;;;142.63;49.10;;;;;;;;;;5027249;28;20033;-76
2022/01/11 05:41:45;;;;;;;107.00;42.55;;;;;;;;;;5020256;28;20034;-76
2022/01/11 05:44:11;;;;;;;106.13;43.13;;;;;;;;;;5016059;28;20025;-74
2022/01/11 05:46:37;;;;;;;104.70;41.33;;;;;;;;;;5010077;28;20028;-76
2022/01/11 05:49:03;;;;;;;106.18;38.95;;;;;;;;;;5013775;28;20156;-76
2022/01/11 05:51:29;;;;;;;92.43;37.05;;;;;;;;;;5027773;28;20022;-76
2022/01/11 05:53:56;;;;;;;99.93;37.80;;;;;;;;;;5012259;28;20069;-75
2022/01/11 05:56:22;;;;;;;93.72;37.33;;;;;;;;;;5033502;28;20032;-75
2022/01/11 05:58:48;;;;;;;103.00;40.22;;;;;;;;;;5027380;28;20022;-76
2022/01/11 06:01:15;;;;;;;96.85;39.28;;;;;;;;;;4996264;28;20499;-76
2022/01/11 06:03:41;;;;;;;87.20;37.38;;;;;;;;;;5009122;28;20060;-76
2022/01/11 06:06:07;;;;;;;98.40;36.90;;;;;;;;;;5016140;28;20053;-75
2022/01/11 06:08:33;;;;;;;92.68;37.50;;;;;;;;;;5027359;28;20476;-76
2022/01/11 06:10:59;;;;;;;89.88;35.97;;;;;;;;;;5021211;28;20040;-75
2022/01/11 06:13:25;;;;;;;102.95;38.38;;;;;;;;;;5002475;28;20030;-76
2022/01/11 06:15:51;;;;;;;93.93;37.17;;;;;;;;;;5027635;28;20025;-75
2022/01/11 06:18:18;;;;;;;87.82;34.60;;;;;;;;;;5015746;28;20360;-75
2022/01/11 06:20:44;;;;;;;100.38;38.22;;;;;;;;;;5025471;28;20388;-77
2022/01/11 06:23:10;;;;;;;99.05;37.28;;;;;;;;;;5012484;28;20034;-76
2022/01/11 06:25:36;;;;;;;90.22;37.47;;;;;;;;;;5025884;28;20546;-76
2022/01/11 06:28:03;;;;;;;90.05;37.00;;;;;;;;;;4997887;28;20218;-75
2022/01/11 06:30:29;;;;;;;87.72;37.17;;;;;;;;;;5027608;28;20032;-76
2022/01/11 06:32:56;;;;;;;101.03;40.10;;;;;;;;;;5019857;28;20162;-76
2022/01/11 06:35:22;;;;;;;102.32;37.65;;;;;;;;;;5020155;28;20022;-77
2022/01/11 06:37:49;;;;;;;102.25;37.42;;;;;;;;;;5027719;28;20029;-76
2022/01/11 06:40:16;;;;;;;97.82;39.63;;;;;;;;;;4998014;28;20519;-76
2022/01/11 06:42:43;;;;;;;98.13;40.67;;;;;;;;;;5007700;28;20022;-76
2022/01/11 06:45:10;;;;;;;95.63;38.22;;;;;;;;;;5012250;28;20026;-76
2022/01/11 06:47:36;;;;;;;101.95;39.08;;;;;;;;;;5025614;28;20155;-76
2022/01/11 06:50:03;;;;;;;98.20;36.58;;;;;;;;;;5014863;28;20084;-75
2022/01/11 06:52:29;;;;;;;94.10;35.50;;;;;;;;;;5021094;28;20417;-76
2022/01/11 06:54:55;;;;;;;102.13;37.38;;;;;;;;;;5019802;28;20068;-76
2022/01/11 06:57:21;;;;;;;92.80;38.75;;;;;;;;;;5031428;28;20029;-76
2022/01/11 06:59:47;;;;;;;92.80;37.53;;;;;;;;;;5016986;28;20080;-76
2022/01/11 07:02:13;;;;;;;94.68;39.38;;;;;;;;;;5027919;28;20026;-75
2022/01/11 07:04:39;;;;;;;106.30;39.17;;;;;;;;;;5017616;28;20391;-76
2022/01/11 07:07:06;;;;;;;90.55;36.33;;;;;;;;;;5022213;28;20171;-76
2022/01/11 07:09:32;;;;;;;102.07;39.90;;;;;;;;;;5026433;28;20360;-75
2022/01/11 07:11:59;;;;;;;95.30;38.70;;;;;;;;;;5019376;28;20103;-76
2022/01/11 07:14:25;;;;;;;87.60;36.15;;;;;;;;;;5019902;28;20497;-75
2022/01/11 07:16:51;;;;;;;91.93;37.72;;;;;;;;;;5028831;28;20022;-72
2022/01/11 07:19:17;;;;;;;91.22;39.22;;;;;;;;;;5027089;28;20048;-75
2022/01/11 07:21:46;;;;;;;92.93;36.55;;;;;;;;;;5036846;28;20111;-75
2022/01/11 07:24:13;;;;;;;99.75;41.78;;;;;;;;;;5020731;28;20105;-75
2022/01/11 07:26:39;;;;;;;98.35;39.47;;;;;;;;;;5034114;28;20053;-76
2022/01/11 07:29:05;;;;;;;88.60;37.10;;;;;;;;;;5026590;28;20061;-73
2022/01/11 07:31:32;;;;;;;96.75;38.28;;;;;;;;;;5005879;28;20539;-78
2022/01/11 07:33:58;;;;;;;90.55;37.80;;;;;;;;;;5033240;28;20112;-75
2022/01/11 07:36:24;;;;;;;101.40;40.40;;;;;;;;;;5019517;28;20022;-76
2022/01/11 07:38:51;;;;;;;95.90;37.80;;;;;;;;;;5010355;28;20022;-76
2022/01/11 07:41:17;;;;;;;102.18;38.90;;;;;;;;;;5026879;28;20104;-75
2022/01/11 07:43:43;;;;;;;111.60;45.38;;;;;;;;;;5021683;28;20473;-77
2022/01/11 07:46:09;;;;;;;94.80;39.53;;;;;;;;;;5036776;28;20025;-78
2022/01/11 07:48:35;;;;;;;99.35;40.45;;;;;;;;;;5043689;28;20017;-77
2022/01/11 07:51:01;;;;;;;94.43;39.90;;;;;;;;;;5038694;28;20087;-77
2022/01/11 07:53:27;;;;;;;97.70;38.70;;;;;;;;;;5034380;28;20056;-76
2022/01/11 07:55:54;;;;;;;89.53;37.83;;;;;;;;;;5034523;28;20476;-76
2022/01/11 07:58:20;;;;;;;100.75;38.42;;;;;;;;;;5014251;28;20467;-76
2022/01/11 08:00:46;;;;;;;86.53;34.53;;;;;;;;;;5022296;28;20022;-77
2022/01/11 08:03:12;;;;;;;83.05;33.42;;;;;;;;;;5034969;28;20086;-74
2022/01/11 08:05:38;;;;;;;91.53;32.47;;;;;;;;;;5035568;28;20029;-75
2022/01/11 08:08:04;;;;;;;81.47;34.20;;;;;;;;;;5034927;28;20036;-76
2022/01/11 08:10:31;;;;;;;84.10;32.03;;;;;;;;;;5015343;28;20030;-75
2022/01/11 08:12:57;;;;;;;82.25;33.33;;;;;;;;;;5015611;28;20040;-74
2022/01/11 08:15:23;;;;;;;93.80;35.35;;;;;;;;;;5008728;28;20108;-72
2022/01/11 08:17:49;;;;;;;90.38;32.55;;;;;;;;;;5018595;28;20523;-73
2022/01/11 08:20:16;;;;;;;77.50;30.35;;;;;;;;;;5032407;28;20032;-72
2022/01/11 08:22:42;;;;;;;89.32;34.38;;;;;;;;;;5033816;28;20026;-72
2022/01/11 08:25:08;;;;;;;85.28;33.53;;;;;;;;;;5024051;28;20041;-73
2022/01/11 08:27:34;;;;;;;82.82;32.88;;;;;;;;;;5014217;28;20037;-74
2022/01/11 08:30:01;;;;;;;78.05;30.70;;;;;;;;;;5030387;28;20025;-72
2022/01/11 08:32:27;;;;;;;77.38;32.70;;;;;;;;;;5018539;28;20025;-72
2022/01/11 08:34:53;;;;;;;75.10;31.00;;;;;;;;;;5026035;28;20427;-76
2022/01/11 08:37:19;;;;;;;73.78;30.08;;;;;;;;;;5010813;28;20112;-73
2022/01/11 08:39:45;;;;;;;83.47;34.72;;;;;;;;;;5034510;28;20053;-73
2022/01/11 08:42:12;;;;;;;78.95;32.83;;;;;;;;;;5022157;28;20038;-74
2022/01/11 08:44:39;;;;;;;82.00;31.13;;;;;;;;;;5031505;28;20021;-75
2022/01/11 08:47:05;;;;;;;76.50;32.58;;;;;;;;;;5034604;28;20029;-71
2022/01/11 08:49:31;;;;;;;80.07;28.77;;;;;;;;;;5034812;28;20028;-74
2022/01/11 08:51:57;;;;;;;80.47;31.77;;;;;;;;;;5017592;28;20105;-78
2022/01/11 08:54:24;;;;;;;84.80;32.67;;;;;;;;;;5015941;28;20132;-74
2022/01/11 08:56:52;;;;;;;77.40;32.55;;;;;;;;;;5013888;28;20030;-72
2022/01/11 08:59:18;;;;;;;75.40;30.90;;;;;;;;;;5021310;28;20464;-78
2022/01/11 09:01:44;;;;;;;74.18;31.92;;;;;;;;;;5034291;28;20144;-77
2022/01/11 09:04:10;;;;;;;75.03;32.30;;;;;;;;;;5003665;28;20069;-75
2022/01/11 09:06:36;;;;;;;76.15;31.95;;;;;;;;;;5012830;28;20036;-75
2022/01/11 09:09:05;;;;;;;79.25;32.55;;;;;;;;;;5000136;28;20079;-77
2022/01/11 09:11:31;;;;;;;74.60;28.45;;;;;;;;;;5012733;28;20031;-79
2022/01/11 09:13:57;;;;;;;75.43;31.25;;;;;;;;;;5024596;28;20091;-76
2022/01/11 09:16:24;;;;;;;82.13;32.58;;;;;;;;;;5015762;28;20022;-78
2022/01/11 09:18:50;;;;;;;73.55;31.67;;;;;;;;;;5001138;28;20041;-75
2022/01/11 09:21:28;;;;;;;75.72;29.92;;;;;;;;;;5011465;28;20030;-79
2022/01/11 09:24:06;;;;;;;83.95;32.90;;;;;;;;;;5015175;28;20034;-80
2022/01/11 09:26:47;;;;;;;73.40;30.63;;;;;;;;;;4998756;28;20056;-77
2022/01/11 09:29:13;;;;;;;;;;;;;;;;;;5001711;28;20045;-79
2022/01/11 09:31:52;;;;;;;75.60;29.92;;;;;;;;;;5033016;28;19909;-80
2022/01/11 09:37:41;;;;;;;72.10;30.23;;;;;;;;;;5001656;28;20060;-78
2022/01/11 09:40:27;;;;;;;67.82;29.70;;;;;;;;;;5011389;28;20037;-79
2022/01/11 09:43:03;;;;;;;69.50;30.20;;;;;;;;;;5010026;28;20104;-76
2022/01/11 09:45:31;;;;;;;73.55;28.45;;;;;;;;;;5027038;28;20021;-78
2022/01/11 09:47:57;;;;;;;76.22;31.48;;;;;;;;;;5014685;28;20025;-71
2022/01/11 09:50:24;;;;;;;72.18;30.48;;;;;;;;;;5030087;28;20024;-73
2022/01/11 09:52:50;;;;;;;72.78;29.35;;;;;;;;;;5011266;28;20040;-71
2022/01/11 09:55:16;;;;;;;69.40;29.83;;;;;;;;;;5011214;28;20054;-72
2022/01/11 09:57:42;;;;;;;66.72;30.80;;;;;;;;;;5015635;28;20021;-73
2022/01/11 10:00:10;;;;;;;74.57;29.40;;;;;;;;;;5024293;28;20409;-72
2022/01/11 10:02:37;;;;;;;69.68;30.42;;;;;;;;;;5032537;28;20245;-70
2022/01/11 10:05:05;;;;;;;75.25;29.08;;;;;;;;;;5032166;28;20022;-75
2022/01/11 10:07:37;;;;;;;71.93;29.23;;;;;;;;;;5032361;28;20395;-71
2022/01/11 10:10:03;;;;;;;65.50;27.40;;;;;;;;;;5032066;28;20041;-71
2022/01/11 10:12:40;;;;;;;72.35;31.50;;;;;;;;;;5032263;28;20048;-72
2022/01/11 10:15:06;;;;;;;69.53;31.25;;;;;;;;;;5032067;28;20037;-72
2022/01/11 10:17:38;;;;;;;74.72;31.05;;;;;;;;;;5030770;28;20124;-73
2022/01/11 10:20:06;;;;;;;63.33;27.45;;;;;;;;;;5030667;28;20032;-72
2022/01/11 10:22:33;;;;;;;72.03;27.83;;;;;;;;;;5032068;28;20021;-72
2022/01/11 10:25:00;;;;;;;67.15;30.48;;;;;;;;;;5031731;28;20038;-72
2022/01/11 10:27:28;;;;;;;70.10;28.23;;;;;;;;;;5031689;28;20021;-72
2022/01/11 10:30:04;;;;;;;68.53;30.73;;;;;;;;;;5027441;28;20022;-73
2022/01/11 10:32:32;;;;;;;66.90;29.38;;;;;;;;;;5039122;28;20336;-72
2022/01/11 10:34:59;;;;;;;63.10;28.00;;;;;;;;;;5033851;28;20059;-71
2022/01/11 10:37:39;;;;;;;67.15;29.02;;;;;;;;;;5033694;28;20025;-72
2022/01/11 10:40:10;;;;;;;66.40;28.65;;;;;;;;;;5051483;28;20065;-73
2022/01/11 10:42:38;;;;;;;64.60;28.45;;;;;;;;;;5049930;28;20107;-72
2022/01/11 10:45:04;;;;;;;68.50;28.30;;;;;;;;;;5047758;28;20067;-74
2022/01/11 10:47:35;;;;;;;66.25;29.10;;;;;;;;;;5049639;28;20021;-73
2022/01/11 10:50:05;;;;;;;65.00;27.90;;;;;;;;;;5049417;28;20024;-72
2022/01/11 10:52:32;;;;;;;73.85;28.90;;;;;;;;;;5050556;28;20352;-73
2022/01/11 10:54:58;;;;;;;64.20;28.13;;;;;;;;;;5050172;28;20063;-72
2022/01/11 10:57:28;;;;;;;74.07;28.90;;;;;;;;;;5050608;28;20067;-72
2022/01/11 11:00:27;;;;;;;69.22;28.50;;;;;;;;;;5051286;28;20017;-72
2022/01/11 11:02:55;;;;;;;67.75;27.65;;;;;;;;;;5007204;28;20063;-75
2022/01/11 11:05:25;;;;;;;73.05;31.15;;;;;;;;;;5051085;28;20082;-72
2022/01/11 11:08:01;;;;;;;71.47;28.63;;;;;;;;;;5033604;28;20163;-73
2022/01/11 11:10:28;;;;;;;60.30;27.02;;;;;;;;;;5050950;28;20025;-72
2022/01/11 11:12:56;;;;;;;74.30;29.52;;;;;;;;;;5051247;28;20033;-73
2022/01/11 11:15:33;;;;;;;69.63;26.25;;;;;;;;;;5051550;28;20395;-73
2022/01/11 11:17:59;;;;;;;62.50;27.27;;;;;;;;;;5051566;28;20491;-72
2022/01/11 11:20:26;;;;;;;67.03;29.38;;;;;;;;;;5033794;28;20402;-73
2022/01/11 11:22:52;;;;;;;76.00;31.48;;;;;;;;;;5051649;28;20019;-71
2022/01/11 11:25:18;;;;;;;65.32;28.25;;;;;;;;;;5034759;28;20044;-72
2022/01/11 11:27:44;;;;;;;69.13;31.02;;;;;;;;;;5051484;28;20036;-72
2022/01/11 11:30:11;;;;;;;66.53;29.45;;;;;;;;;;5051291;28;20021;-73
2022/01/11 11:32:37;;;;;;;61.72;26.90;;;;;;;;;;5051528;28;20021;-72
2022/01/11 11:35:03;;;;;;;71.82;29.15;;;;;;;;;;5051041;28;20022;-73
2022/01/11 11:37:34;;;;;;;64.13;30.00;;;;;;;;;;5051221;28;20060;-72
2022/01/11 11:40:04;;;;;;;63.45;27.48;;;;;;;;;;5028705;28;20044;-74
2022/01/11 11:42:30;;;;;;;60.58;25.60;;;;;;;;;;5033751;28;20022;-73
2022/01/11 11:44:57;;;;;;;59.40;25.40;;;;;;;;;;5011103;28;20013;-72
2022/01/11 11:47:31;;;;;;;67.32;26.55;;;;;;;;;;5030843;28;20036;-70
2022/01/11 11:50:02;;;;;;;56.08;24.95;;;;;;;;;;5046635;28;20100;-73
2022/01/11 11:52:28;;;;;;;48.27;20.33;;;;;;;;;;5050815;28;20025;-71
2022/01/11 11:55:06;;;;;;;64.85;25.35;;;;;;;;;;5051106;28;20033;-72
2022/01/11 11:57:34;;;;;;;61.85;28.35;;;;;;;;;;5046384;28;20071;-71
2022/01/11 12:00:04;;;;;;;65.30;27.67;;;;;;;;;;5034755;28;20022;-71
2022/01/11 12:02:38;;;;;;;59.50;26.95;;;;;;;;;;5034687;28;20053;-71
2022/01/11 12:05:05;;;;;;;60.88;25.75;;;;;;;;;;5033448;28;20101;-72
2022/01/11 12:07:45;;;;;;;65.40;28.45;;;;;;;;;;5034298;28;20025;-70
2022/01/11 12:10:16;;;;;;;59.95;25.00;;;;;;;;;;5019653;28;20025;-72
2022/01/11 12:12:52;;;;;;;68.35;28.63;;;;;;;;;;5034007;28;20017;-72
2022/01/11 12:15:35;;;;;;;61.95;26.30;;;;;;;;;;5033917;28;20024;-72
2022/01/11 12:18:01;;;;;;;56.30;26.52;;;;;;;;;;5033949;28;20360;-72
2022/01/11 12:20:47;;;;;;;68.78;28.58;;;;;;;;;;5014427;28;20040;-72
2022/01/11 12:23:20;;;;;;;64.28;29.02;;;;;;;;;;5014235;28;20550;-72
2022/01/11 12:25:49;;;;;;;75.57;30.05;;;;;;;;;;5023494;28;20499;-72
2022/01/11 12:28:17;;;;;;;66.43;29.05;;;;;;;;;;5034345;28;20112;-72
2022/01/11 12:30:44;;;;;;;65.80;28.67;;;;;;;;;;5034700;28;20022;-72
2022/01/11 12:33:17;;;;;;;70.70;27.15;;;;;;;;;;5034063;28;20038;-72
2022/01/11 12:35:53;;;;;;;63.10;26.67;;;;;;;;;;5033979;28;20029;-72
2022/01/11 12:38:20;;;;;;;65.30;27.77;;;;;;;;;;5033924;28;20499;-69
2022/01/11 12:40:47;;;;;;;62.95;27.08;;;;;;;;;;5034503;28;20144;-69
2022/01/11 12:43:18;;;;;;;63.25;27.17;;;;;;;;;;5033951;28;20021;-71
2022/01/11 12:45:55;;;;;;;64.40;28.02;;;;;;;;;;5034062;28;20083;-68
2022/01/11 12:48:39;;;;;;;71.65;29.35;;;;;;;;;;5032875;28;20025;-67
2022/01/11 12:51:05;;;;;;;55.85;24.90;;;;;;;;;;5033707;28;20029;-71
2022/01/11 12:53:31;;;;;;;67.32;27.13;;;;;;;;;;5033569;28;20044;-72
2022/01/11 12:55:57;;;;;;;68.72;29.20;;;;;;;;;;5034171;28;20112;-68
2022/01/11 12:58:24;;;;;;;65.15;27.00;;;;;;;;;;5034271;28;20026;-67
2022/01/11 13:00:50;;;;;;;66.93;27.65;;;;;;;;;;5034322;28;20021;-69
2022/01/11 13:03:16;;;;;;;66.00;28.25;;;;;;;;;;5033316;28;20029;-69
2022/01/11 13:05:43;;;;;;;69.40;29.05;;;;;;;;;;5033922;28;20033;-68
2022/01/11 13:08:09;;;;;;;72.03;29.95;;;;;;;;;;5033268;28;20041;-69
2022/01/11 13:10:35;;;;;;;63.08;27.40;;;;;;;;;;5033516;28;20076;-68
2022/01/11 13:13:21;;;;;;;63.63;27.08;;;;;;;;;;5032957;28;20033;-69
2022/01/11 13:15:50;;;;;;;61.53;26.50;;;;;;;;;;5033116;28;20479;-69
2022/01/11 13:18:19;;;;;;;71.43;29.77;;;;;;;;;;5013699;28;20488;-71
2022/01/11 13:20:56;;;;;;;64.88;28.27;;;;;;;;;;5014192;28;20030;-69
2022/01/11 13:23:28;;;;;;;66.03;27.35;;;;;;;;;;5013619;28;20026;-69
2022/01/11 13:26:01;;;;;;;61.90;26.55;;;;;;;;;;5013350;28;20041;-69
2022/01/11 13:28:35;;;;;;;66.60;27.70;;;;;;;;;;5014121;28;20054;-69
2022/01/11 13:31:02;;;;;;;62.47;26.63;;;;;;;;;;5013854;28;20057;-69
2022/01/11 13:33:32;;;;;;;72.63;31.15;;;;;;;;;;5013185;28;20053;-70
2022/01/11 13:36:00;;;;;;;49.65;21.52;;;;;;;;;;5013770;28;20101;-68
2022/01/11 13:38:33;;;;;;;66.40;26.77;;;;;;;;;;5014798;28;20122;-69
2022/01/11 13:41:00;;;;;;;59.30;26.33;;;;;;;;;;5012967;28;20026;-68
2022/01/11 13:43:39;;;;;;;60.97;26.52;;;;;;;;;;5012781;28;20025;-70
2022/01/11 13:46:05;;;;;;;66.38;28.20;;;;;;;;;;5013244;28;20231;-69
2022/01/11 13:48:35;;;;;;;61.47;27.50;;;;;;;;;;5013652;28;20032;-69
2022/01/11 13:51:02;;;;;;;65.15;27.67;;;;;;;;;;5012936;28;20029;-69
2022/01/11 13:53:29;;;;;;;68.53;28.90;;;;;;;;;;5012607;28;20109;-67
2022/01/11 13:56:01;;;;;;;57.20;26.88;;;;;;;;;;5013101;28;20373;-69
2022/01/11 13:58:29;;;;;;;58.80;26.33;;;;;;;;;;5021889;28;20057;-69
2022/01/11 14:00:55;;;;;;;61.88;28.58;;;;;;;;;;5032300;28;20026;-68
2022/01/11 14:03:22;;;;;;;63.92;27.30;;;;;;;;;;5035819;28;20038;-69
2022/01/11 14:05:48;;;;;;;64.07;28.23;;;;;;;;;;5032161;28;20053;-69
2022/01/11 14:08:14;;;;;;;66.97;27.75;;;;;;;;;;5032953;28;20022;-69
2022/01/11 14:10:48;;;;;;;57.25;26.60;;;;;;;;;;5032228;28;20026;-69
2022/01/11 14:13:16;;;;;;;59.28;25.98;;;;;;;;;;5031890;28;20026;-72
2022/01/11 14:15:42;;;;;;;64.63;27.35;;;;;;;;;;5032247;28;20553;-70
2022/01/11 14:18:12;;;;;;;62.70;26.00;;;;;;;;;;5031851;28;20022;-69
2022/01/11 14:20:38;;;;;;;68.20;29.05;;;;;;;;;;5031462;28;20029;-70
2022/01/11 14:23:15;;;;;;;66.07;27.77;;;;;;;;;;5032635;28;20033;-70
2022/01/11 14:25:43;;;;;;;62.00;25.98;;;;;;;;;;5027320;28;20021;-68